Time;durP1;ratioP1;P1;durP2;ratioP2;P2;SDS_P1;SDS_P2;PMS_P1;PMS_P2;Temp;Humidity;BMP_temperature;BMP_pressure;BME280_temperature;BME280_humidity;BME280_pressure;Samples;Min_cycle;Max_cycle;Signal;HPM_P1;HPM_P2
2023/05/15 00:00:05;;;;;;;;;;;;;;;;;;;;;
2023/05/15 00:02:51;;;;;;;;;;;;;;;;;;;;;
2023/05/15 00:05:33;;;;;;;33.72;17.10;;;;;;;;;;6341964;22;20079;-95
2023/05/15 00:14:10;;;;;;;32.65;15.63;;;;;;;;;;6337756;22;20006;-96
2023/05/15 00:17:12;;;;;;;;;;;;;;;;;;;;;
2023/05/15 00:20:10;;;;;;;;;;;;;;;;;;;;;
2023/05/15 00:25:34;;;;;;;;;;;;;;;;;;;;;
2023/05/15 00:28:25;;;;;;;;;;;;;;;;;;;;;
2023/05/15 00:31:19;;;;;;;39.15;18.67;;;;;;;;;;6341139;22;20058;-95
2023/05/15 00:36:54;;;;;;;34.53;17.58;;;;;;;;;;6338405;22;20082;-96
2023/05/15 00:42:39;;;;;;;38.88;17.92;;;;;;;;;;6335937;22;20460;-96
2023/05/15 00:45:16;;;;;;;42.55;20.13;;;;;;;;;;6315244;22;20516;-96
2023/05/15 00:47:45;;;;;;;43.65;20.05;;;;;;;;;;6310404;22;20007;-95
2023/05/15 00:50:41;;;;;;;45.50;20.70;;;;;;;;;;6311774;22;20003;-95
2023/05/15 00:53:09;;;;;;;47.08;21.98;;;;;;;;;;6315341;22;20006;-96
2023/05/15 00:59:27;;;;;;;45.85;20.88;;;;;;;;;;6322534;22;20006;-96
2023/05/15 01:04:41;;;;;;;49.40;21.67;;;;;;;;;;6325138;22;20007;-95
2023/05/15 01:10:18;;;;;;;48.70;23.30;;;;;;;;;;6313422;22;20017;-96
2023/05/15 01:12:53;;;;;;;46.60;22.27;;;;;;;;;;6314738;22;20053;-96
2023/05/15 01:15:32;;;;;;;53.92;22.98;;;;;;;;;;6310970;22;20003;-96
2023/05/15 01:18:14;;;;;;;51.00;22.75;;;;;;;;;;6307645;22;20401;-96
2023/05/15 01:21:10;;;;;;;53.05;23.98;;;;;;;;;;6309764;22;20009;-96
2023/05/15 01:24:05;;;;;;;53.13;25.77;;;;;;;;;;6302742;22;20015;-96
2023/05/15 01:30:06;;;;;;;62.63;26.20;;;;;;;;;;6344451;22;20463;-95
2023/05/15 01:32:56;;;;;;;52.95;23.40;;;;;;;;;;6315440;22;20294;-95
2023/05/15 01:35:35;;;;;;;53.63;24.70;;;;;;;;;;6341656;22;20006;-96
2023/05/15 01:41:15;;;;;;;50.88;23.45;;;;;;;;;;6326931;22;20038;-96
2023/05/15 01:44:06;;;;;;;56.55;22.63;;;;;;;;;;6314120;22;20015;-96
2023/05/15 01:46:43;;;;;;;56.97;24.13;;;;;;;;;;6312132;22;20021;-96
2023/05/15 01:49:22;;;;;;;;;;;;;;;;;;;;;
2023/05/15 01:52:21;;;;;;;;;;;;;;;;;;;;;
2023/05/15 02:01:14;;;;;;;55.83;24.20;;;;;;;;;;6342844;22;19998;-95
2023/05/15 02:03:54;;;;;;;55.72;24.85;;;;;;;;;;6342661;22;20025;-96
2023/05/15 02:06:23;;;;;;;52.75;23.60;;;;;;;;;;6314284;22;19998;-95
2023/05/15 02:09:21;;;;;;;;;;;;;;;;;;;;;
2023/05/15 02:11:58;;;;;;;52.55;23.35;;;;;;;;;;6342033;22;20417;-95
2023/05/15 02:14:42;;;;;;;52.42;23.90;;;;;;;;;;6315112;22;20058;-96
2023/05/15 02:17:29;;;;;;;;;;;;;;;;;;;;;
2023/05/15 02:23:15;;;;;;;52.38;25.02;;;;;;;;;;6315965;22;20062;-96
2023/05/15 02:26:12;;;;;;;;;;;;;;;;;;;;;
2023/05/15 02:29:01;;;;;;;54.85;24.95;;;;;;;;;;6342596;22;20014;-96
2023/05/15 02:31:51;;;;;;;53.88;23.17;;;;;;;;;;6314119;22;20380;-96
2023/05/15 02:34:22;;;;;;;47.25;22.73;;;;;;;;;;6189940;23;20004;-96
2023/05/15 02:37:01;;;;;;;51.17;23.08;;;;;;;;;;6304675;22;20060;-95
2023/05/15 02:42:27;;;;;;;56.15;24.73;;;;;;;;;;6325799;22;20015;-95
2023/05/15 02:45:08;;;;;;;57.03;25.63;;;;;;;;;;6315367;22;20007;-96
2023/05/15 02:47:47;;;;;;;46.90;23.10;;;;;;;;;;6311979;22;20424;-94
2023/05/15 02:59:17;;;;;;;49.50;22.88;;;;;;;;;;6325994;22;20007;-96
2023/05/15 03:04:53;;;;;;;52.03;21.83;;;;;;;;;;6186181;23;20037;-96
2023/05/15 03:07:30;;;;;;;52.13;22.50;;;;;;;;;;6311248;22;20002;-96
2023/05/15 03:10:16;;;;;;;51.28;22.10;;;;;;;;;;6315825;22;19998;-96
2023/05/15 03:13:52;;;;;;;49.70;21.50;;;;;;;;;;6313989;22;20014;-96
2023/05/15 03:16:17;;;;;;;47.70;21.27;;;;;;;;;;6325472;22;20050;-96
2023/05/15 03:18:47;;;;;;;48.08;20.67;;;;;;;;;;6338669;22;20441;-96
2023/05/15 03:21:43;;;;;;;54.05;22.63;;;;;;;;;;6312641;22;20081;-96
2023/05/15 03:27:23;;;;;;;53.50;21.85;;;;;;;;;;6262400;22;20078;-95
2023/05/15 03:30:13;;;;;;;54.00;21.00;;;;;;;;;;6342079;22;20014;-96
2023/05/15 03:33:09;;;;;;;;;;;;;;;;;;;;;
2023/05/15 03:35:51;;;;;;;;;;;;;;;;;;;;;
2023/05/15 03:41:26;;;;;;;44.25;20.38;;;;;;;;;;6271800;22;20060;-96
2023/05/15 03:44:10;;;;;;;53.83;22.70;;;;;;;;;;6315301;22;20006;-96
2023/05/15 03:46:45;;;;;;;48.35;23.33;;;;;;;;;;6316407;22;20009;-96
2023/05/15 03:50:00;;;;;;;62.20;25.17;;;;;;;;;;6314739;22;20002;-96
2023/05/15 03:54:58;;;;;;;56.50;23.52;;;;;;;;;;6322517;22;20007;-96
2023/05/15 04:00:33;;;;;;;65.82;26.23;;;;;;;;;;6322620;22;20003;-95
2023/05/15 04:03:18;;;;;;;59.03;26.15;;;;;;;;;;6312618;22;20007;-95
2023/05/15 04:06:16;;;;;;;60.95;23.77;;;;;;;;;;6311277;22;20003;-95
2023/05/15 04:09:12;;;;;;;;;;;;;;;;;;;;;
2023/05/15 04:11:40;;;;;;;62.80;25.10;;;;;;;;;;6336945;22;20439;-96
2023/05/15 04:14:11;;;;;;;65.07;26.50;;;;;;;;;;6315779;22;20007;-96
2023/05/15 04:16:48;;;;;;;64.97;25.65;;;;;;;;;;6308543;22;20006;-96
2023/05/15 04:25:52;;;;;;;63.72;25.70;;;;;;;;;;6344826;22;20002;-96
2023/05/15 04:28:24;;;;;;;65.20;28.42;;;;;;;;;;6342573;22;20321;-95
2023/05/15 04:34:10;;;;;;;;;;;;;;;;;;;;;
2023/05/15 04:39:35;;;;;;;68.45;25.15;;;;;;;;;;6316870;22;19995;-95
2023/05/15 04:45:01;;;;;;;60.05;24.35;;;;;;;;;;6230020;22;20357;-95
2023/05/15 04:47:29;;;;;;;61.15;27.20;;;;;;;;;;6267369;22;20054;-95
2023/05/15 04:50:15;;;;;;;59.67;25.15;;;;;;;;;;6285707;22;20011;-96
2023/05/15 04:53:02;;;;;;;;;;;;;;;;;;;;;
2023/05/15 04:59:00;;;;;;;67.65;26.10;;;;;;;;;;6288632;22;20082;-96
2023/05/15 05:04:44;;;;;;;;;;;;;;;;;;;;;
2023/05/15 05:07:32;;;;;;;64.60;21.73;;;;;;;;;;6273279;22;20086;-96
2023/05/15 05:10:07;;;;;;;63.35;24.58;;;;;;;;;;6262468;22;20089;-96
2023/05/15 05:12:49;;;;;;;71.47;25.25;;;;;;;;;;6285978;22;19996;-95
2023/05/15 05:15:24;;;;;;;63.17;25.20;;;;;;;;;;6284430;22;20022;-95
2023/05/15 05:21:05;;;;;;;65.60;24.75;;;;;;;;;;6286890;22;20007;-96
2023/05/15 05:23:58;;;;;;;55.30;20.38;;;;;;;;;;6284492;22;20007;-95
2023/05/15 05:26:37;;;;;;;;;;;;;;;;;;;;;
2023/05/15 05:32:29;;;;;;;58.28;22.65;;;;;;;;;;6186081;23;20105;-96
2023/05/15 05:35:10;;;;;;;;;;;;;;;;;;;;;
2023/05/15 05:38:07;;;;;;;63.97;24.35;;;;;;;;;;6310456;22;20070;-96
2023/05/15 05:49:52;;;;;;;;;;;;;;;;;;;;;
2023/05/15 05:55:51;;;;;;;;;;;;;;;;;;;;;
2023/05/15 06:04:44;;;;;;;;;;;;;;;;;;;;;
2023/05/15 06:07:44;;;;;;;;;;;;;;;;;;;;;
2023/05/15 06:10:25;;;;;;;54.45;23.40;;;;;;;;;;6217033;22;20062;-96
2023/05/15 06:16:06;;;;;;;54.67;22.92;;;;;;;;;;6290654;22;20026;-95
2023/05/15 06:19:23;;;;;;;;;;;;;;;;;;;;;
2023/05/15 06:21:45;;;;;;;58.88;25.33;;;;;;;;;;6285262;22;20006;-95
2023/05/15 06:25:05;;;;;;;;;;;;;;;;;;;;;
2023/05/15 06:27:38;;;;;;;;;;;;;;;;;;;;;
2023/05/15 06:33:20;;;;;;;58.95;26.45;;;;;;;;;;6294612;22;20013;-96
2023/05/15 06:35:46;;;;;;;76.57;29.50;;;;;;;;;;6314854;22;20406;-96
2023/05/15 06:38:45;;;;;;;;;;;;;;;;;;;;;
2023/05/15 06:41:16;;;;;;;67.78;28.10;;;;;;;;;;6343780;22;20018;-95
2023/05/15 06:47:05;;;;;;;71.10;27.60;;;;;;;;;;6328817;22;20007;-96
2023/05/15 06:52:35;;;;;;;72.45;28.58;;;;;;;;;;6313682;22;20544;-95
2023/05/15 06:55:14;;;;;;;;;;;;;;;;;;;;;
2023/05/15 07:01:05;;;;;;;68.97;28.88;;;;;;;;;;6309204;22;19999;-95
2023/05/15 07:06:36;;;;;;;66.38;27.85;;;;;;;;;;6315215;22;20062;-96
2023/05/15 07:09:30;;;;;;;70.32;32.33;;;;;;;;;;6315212;22;20014;-96
2023/05/15 07:11:53;;;;;;;62.03;27.55;;;;;;;;;;6337143;22;19999;-96
2023/05/15 07:14:41;;;;;;;;;;;;;;;;;;;;;
2023/05/15 07:17:17;;;;;;;70.32;28.38;;;;;;;;;;6322503;22;20029;-96
2023/05/15 07:23:02;;;;;;;57.65;25.60;;;;;;;;;;6294407;22;20037;-96
2023/05/15 07:28:41;;;;;;;61.25;26.15;;;;;;;;;;6285562;22;19995;-96
2023/05/15 07:31:29;;;;;;;;;;;;;;;;;;;;;
2023/05/15 07:34:28;;;;;;;;;;;;;;;;;;;;;
2023/05/15 07:39:50;;;;;;;;;;;;;;;;;;;;;
2023/05/15 07:42:38;;;;;;;67.25;29.23;;;;;;;;;;6311003;22;20051;-96
2023/05/15 07:48:10;;;;;;;70.70;29.80;;;;;;;;;;6256020;22;20049;-96
2023/05/15 07:50:35;;;;;;;71.70;30.95;;;;;;;;;;6283561;22;20008;-96
2023/05/15 07:53:03;;;;;;;73.03;29.05;;;;;;;;;;6285107;22;20007;-96
2023/05/15 07:55:49;;;;;;;75.13;31.10;;;;;;;;;;6284184;22;20075;-96
2023/05/15 07:58:23;;;;;;;80.05;33.25;;;;;;;;;;6285223;22;20076;-96
2023/05/15 08:00:56;;;;;;;69.38;32.72;;;;;;;;;;6282046;22;20011;-95
2023/05/15 08:03:45;;;;;;;71.25;30.10;;;;;;;;;;6286399;22;20015;-96
2023/05/15 08:06:31;;;;;;;65.50;29.67;;;;;;;;;;6309166;22;20034;-96
2023/05/15 08:09:03;;;;;;;66.40;29.48;;;;;;;;;;6285638;22;20003;-96
2023/05/15 08:11:49;;;;;;;74.47;30.23;;;;;;;;;;6279870;22;20002;-96
2023/05/15 08:14:19;;;;;;;64.32;28.65;;;;;;;;;;6284472;22;19995;-96
2023/05/15 08:17:06;;;;;;;61.55;27.25;;;;;;;;;;6293219;22;20053;-94
2023/05/15 08:19:50;;;;;;;59.60;24.27;;;;;;;;;;6314104;22;19999;-96
2023/05/15 08:25:18;;;;;;;64.85;26.88;;;;;;;;;;6345339;22;20118;-96
2023/05/15 08:28:03;;;;;;;55.88;24.20;;;;;;;;;;6319982;22;19999;-96
2023/05/15 08:30:57;;;;;;;65.88;28.20;;;;;;;;;;6319014;22;20007;-96
2023/05/15 08:33:51;;;;;;;66.80;28.05;;;;;;;;;;6315977;22;19999;-96
2023/05/15 08:36:24;;;;;;;78.22;31.83;;;;;;;;;;6306851;22;20026;-96
2023/05/15 08:39:33;;;;;;;;;;;;;;;;;;;;;
2023/05/15 08:42:13;;;;;;;70.75;29.10;;;;;;;;;;6339875;22;19995;-96
2023/05/15 08:45:01;;;;;;;;;;;;;;;;;;;;;
2023/05/15 08:47:52;;;;;;;64.40;28.80;;;;;;;;;;6343617;22;20019;-96
2023/05/15 08:50:24;;;;;;;61.72;25.77;;;;;;;;;;6313198;22;20003;-96
2023/05/15 08:53:12;;;;;;;79.78;31.63;;;;;;;;;;6312653;22;20059;-96
2023/05/15 08:55:42;;;;;;;76.68;33.88;;;;;;;;;;6314745;22;20040;-96
2023/05/15 08:58:26;;;;;;;71.75;30.55;;;;;;;;;;6316885;22;20487;-95
2023/05/15 09:01:06;;;;;;;67.10;28.38;;;;;;;;;;6312198;22;20010;-96
2023/05/15 09:03:44;;;;;;;78.97;34.90;;;;;;;;;;6309957;22;20504;-95
2023/05/15 09:06:38;;;;;;;76.95;32.40;;;;;;;;;;6315950;22;20009;-96
2023/05/15 09:08:57;;;;;;;74.90;30.30;;;;;;;;;;6339451;22;20007;-96
2023/05/15 09:11:42;;;;;;;;;;;;;;;;;;;;;
2023/05/15 09:14:39;;;;;;;74.88;31.70;;;;;;;;;;6345560;22;20053;-96
2023/05/15 09:17:16;;;;;;;66.53;26.13;;;;;;;;;;6314938;22;20019;-96
2023/05/15 09:20:26;;;;;;;52.50;22.27;;;;;;;;;;6316797;22;20010;-96
2023/05/15 09:23:00;;;;;;;72.47;31.95;;;;;;;;;;6320238;22;20007;-96
2023/05/15 09:26:01;;;;;;;;;;;;;;;;;;;;;
2023/05/15 09:28:52;;;;;;;64.13;28.17;;;;;;;;;;6342896;22;20019;-96
2023/05/15 09:31:22;;;;;;;60.05;26.88;;;;;;;;;;6299532;22;20006;-96
2023/05/15 09:34:00;;;;;;;58.35;23.70;;;;;;;;;;6314864;22;20006;-96
2023/05/15 09:36:42;;;;;;;;;;;;;;;;;;;;;
2023/05/15 09:39:10;;;;;;;59.45;26.75;;;;;;;;;;6346593;22;20018;-96
2023/05/15 09:41:54;;;;;;;;;;;;;;;;;;;;;
2023/05/15 09:44:34;;;;;;;;;;;;;;;;;;;;;
2023/05/15 09:47:07;;;;;;;73.25;29.67;;;;;;;;;;6343565;22;20015;-96
2023/05/15 09:50:04;;;;;;;64.90;29.85;;;;;;;;;;6313574;22;20010;-96
2023/05/15 09:58:42;;;;;;;57.33;25.38;;;;;;;;;;6313208;22;20014;-96
2023/05/15 10:10:57;;;;;;;60.83;25.33;;;;;;;;;;6264788;22;20002;-96
2023/05/15 10:14:27;;;;;;;66.95;26.05;;;;;;;;;;6303679;22;20020;-96
2023/05/15 10:17:15;;;;;;;;;;;;;;;;;;;;;
2023/05/15 10:20:06;;;;;;;68.90;27.52;;;;;;;;;;6159905;23;20029;-96
2023/05/15 10:58:14;;;;;;;69.97;27.85;;;;;;;;;;6271449;22;20047;-96
2023/05/15 11:01:15;;;;;;;;;;;;;;;;;;;;;
2023/05/15 11:07:25;;;;;;;72.30;28.77;;;;;;;;;;6215532;23;20011;-96
2023/05/15 11:10:13;;;;;;;76.40;27.98;;;;;;;;;;6219189;23;20086;-95
2023/05/15 11:16:13;;;;;;;;;;;;;;;;;;;;;
2023/05/15 11:22:24;;;;;;;94.43;32.28;;;;;;;;;;6186853;23;20066;-95
2023/05/15 11:37:15;;;;;;;104.18;33.45;;;;;;;;;;6055697;23;20311;-94
2023/05/15 11:40:17;;;;;;;104.38;32.08;;;;;;;;;;6061415;23;20081;-95
2023/05/15 11:43:32;;;;;;;;;;;;;;;;;;;;;
2023/05/15 11:46:01;;;;;;;101.22;31.63;;;;;;;;;;6090157;23;20065;-95
2023/05/15 11:55:26;;;;;;;;;;;;;;;;;;;;;
2023/05/15 12:06:00;;;;;;;84.47;27.75;;;;;;;;;;6276486;22;20077;-95
2023/05/15 12:08:53;;;;;;;90.60;29.10;;;;;;;;;;6228210;22;20024;-95
2023/05/15 12:11:37;;;;;;;;;;;;;;;;;;;;;
2023/05/15 12:20:47;;;;;;;;;;;;;;;;;;;;;
2023/05/15 12:23:37;;;;;;;91.03;29.23;;;;;;;;;;6094991;23;20093;-94
2023/05/15 12:26:48;;;;;;;84.18;28.65;;;;;;;;;;6044538;23;20011;-95
2023/05/15 12:29:39;;;;;;;95.70;29.67;;;;;;;;;;6066800;23;20010;-96
2023/05/15 12:32:30;;;;;;;108.20;33.42;;;;;;;;;;6065357;23;20003;-96
2023/05/15 12:45:04;;;;;;;;;;;;;;;;;;;;;
2023/05/15 12:48:03;;;;;;;;;;;;;;;;;;;;;
2023/05/15 12:56:25;;;;;;;114.00;36.83;;;;;;;;;;6254158;22;20004;-95
2023/05/15 13:00:22;;;;;;;;;;;;;;;;;;;;;
2023/05/15 13:08:17;;;;;;;110.32;34.53;;;;;;;;;;6275970;22;19992;-95
2023/05/15 13:10:46;;;;;;;118.43;33.00;;;;;;;;;;6199643;22;20020;-95
2023/05/15 13:13:44;;;;;;;;;;;;;;;;;;;;;
2023/05/15 13:16:44;;;;;;;;;;;;;;;;;;;;;
2023/05/15 13:19:48;;;;;;;107.95;31.85;;;;;;;;;;6274169;22;20075;-96
2023/05/15 13:28:09;;;;;;;69.70;21.45;;;;;;;;;;6228715;22;20047;-95
2023/05/15 13:30:44;;;;;;;80.22;24.33;;;;;;;;;;6246783;22;20107;-95
2023/05/15 13:33:11;;;;;;;66.05;21.33;;;;;;;;;;6248906;22;20182;-95
2023/05/15 13:35:50;;;;;;;;;;;;;;;;;;;;;
2023/05/15 13:39:13;;;;;;;50.15;15.43;;;;;;;;;;6275819;22;20194;-96
2023/05/15 13:42:05;;;;;;;42.20;14.18;;;;;;;;;;6250271;22;20299;-96
2023/05/15 13:44:53;;;;;;;36.03;10.77;;;;;;;;;;6247990;22;20011;-95
2023/05/15 13:47:38;;;;;;;44.97;13.68;;;;;;;;;;6224910;22;19999;-96
2023/05/15 13:50:06;;;;;;;42.92;13.95;;;;;;;;;;6248464;22;20341;-95
2023/05/15 13:53:07;;;;;;;;;;;;;;;;;;;;;
2023/05/15 13:55:42;;;;;;;43.08;14.95;;;;;;;;;;6275247;22;20098;-95
2023/05/15 13:58:27;;;;;;;;;;;;;;;;;;;;;
2023/05/15 14:01:10;;;;;;;;;;;;;;;;;;;;;
2023/05/15 14:03:57;;;;;;;;;;;;;;;;;;;;;
2023/05/15 14:07:07;;;;;;;;;;;;;;;;;;;;;
